sensor_id;sensor_type;location;lat;lon;timestamp;pressure;altitude;pressure_sealevel;temperature;humidity
28665;BME280;15850;47.524;7.814;2022-09-09T00:00:40;97520.47;;;13.59;100.00
28665;BME280;15850;47.524;7.814;2022-09-09T00:03:12;97518.66;;;13.67;100.00
28665;BME280;15850;47.524;7.814;2022-09-09T00:05:44;96999.75;;;10.38;100.00
28665;BME280;15850;47.524;7.814;2022-09-09T00:08:17;97523.19;;;13.78;100.00
28665;BME280;15850;47.524;7.814;2022-09-09T00:10:49;97306.13;;;12.36;100.00
28665;BME280;15850;47.524;7.814;2022-09-09T00:13:20;97533.69;;;13.76;100.00
28665;BME280;15850;47.524;7.814;2022-09-09T00:15:52;97552.63;;;13.85;100.00
28665;BME280;15850;47.524;7.814;2022-09-09T00:18:24;97555.66;;;14.03;100.00
28665;BME280;15850;47.524;7.814;2022-09-09T00:20:56;97542.19;;;14.14;100.00
28665;BME280;15850;47.524;7.814;2022-09-09T00:23:25;97406.56;;;13.24;100.00
28665;BME280;15850;47.524;7.814;2022-09-09T00:25:59;97531.06;;;14.03;100.00
28665;BME280;15850;47.524;7.814;2022-09-09T00:28:28;97540.59;;;14.13;100.00
28665;BME280;15850;47.524;7.814;2022-09-09T00:30:55;97336.94;;;12.56;100.00
28665;BME280;15850;47.524;7.814;2022-09-09T00:33:23;97287.81;;;12.37;100.00
28665;BME280;15850;47.524;7.814;2022-09-09T00:35:54;97533.88;;;13.87;100.00
28665;BME280;15850;47.524;7.814;2022-09-09T00:38:25;97452.38;;;13.31;100.00
28665;BME280;15850;47.524;7.814;2022-09-09T00:40:58;97489.97;;;13.57;100.00
28665;BME280;15850;47.524;7.814;2022-09-09T00:43:28;97521.88;;;13.92;100.00
28665;BME280;15850;47.524;7.814;2022-09-09T00:46:15;97295.66;;;12.38;100.00
28665;BME280;15850;47.524;7.814;2022-09-09T00:48:55;97516.41;;;13.92;100.00
28665;BME280;15850;47.524;7.814;2022-09-09T00:51:29;97502.38;;;13.74;100.00
28665;BME280;15850;47.524;7.814;2022-09-09T00:54:10;97423.22;;;13.58;100.00
28665;BME280;15850;47.524;7.814;2022-09-09T00:56:47;97137.09;;;11.62;100.00
28665;BME280;15850;47.524;7.814;2022-09-09T00:59:24;97307.84;;;12.83;100.00
28665;BME280;15850;47.524;7.814;2022-09-09T01:01:56;97506.56;;;14.10;100.00
28665;BME280;15850;47.524;7.814;2022-09-09T01:04:28;97509.84;;;14.19;100.00
28665;BME280;15850;47.524;7.814;2022-09-09T01:07:01;97512.16;;;14.40;100.00
28665;BME280;15850;47.524;7.814;2022-09-09T01:09:32;97436.31;;;13.68;100.00
28665;BME280;15850;47.524;7.814;2022-09-09T01:12:09;97335.16;;;12.83;100.00
28665;BME280;15850;47.524;7.814;2022-09-09T01:14:44;97175.91;;;11.94;100.00
28665;BME280;15850;47.524;7.814;2022-09-09T01:17:17;97463.31;;;13.73;100.00
28665;BME280;15850;47.524;7.814;2022-09-09T01:20:01;97574.50;;;14.27;100.00
28665;BME280;15850;47.524;7.814;2022-09-09T01:22:37;97519.31;;;14.02;100.00
28665;BME280;15850;47.524;7.814;2022-09-09T01:25:28;97110.41;;;11.17;100.00
28665;BME280;15850;47.524;7.814;2022-09-09T01:28:08;96952.03;;;10.09;100.00
28665;BME280;15850;47.524;7.814;2022-09-09T01:30:38;97174.25;;;11.55;100.00
28665;BME280;15850;47.524;7.814;2022-09-09T01:33:11;97545.78;;;13.95;100.00
28665;BME280;15850;47.524;7.814;2022-09-09T01:35:45;97316.63;;;12.54;100.00
28665;BME280;15850;47.524;7.814;2022-09-09T01:38:16;97075.41;;;10.99;100.00
28665;BME280;15850;47.524;7.814;2022-09-09T01:40:51;97533.50;;;14.08;100.00
28665;BME280;15850;47.524;7.814;2022-09-09T01:43:24;97149.00;;;11.38;100.00
28665;BME280;15850;47.524;7.814;2022-09-09T01:45:56;97233.84;;;12.07;100.00
28665;BME280;15850;47.524;7.814;2022-09-09T01:48:22;96930.72;;;10.11;100.00
28665;BME280;15850;47.524;7.814;2022-09-09T01:51:02;96992.53;;;10.62;100.00
28665;BME280;15850;47.524;7.814;2022-09-09T01:53:27;97372.28;;;13.07;100.00
28665;BME280;15850;47.524;7.814;2022-09-09T01:56:13;97324.09;;;12.76;100.00
28665;BME280;15850;47.524;7.814;2022-09-09T01:58:57;97233.06;;;12.26;100.00
28665;BME280;15850;47.524;7.814;2022-09-09T02:01:27;97538.38;;;14.18;100.00
28665;BME280;15850;47.524;7.814;2022-09-09T02:04:01;97313.19;;;12.76;100.00
28665;BME280;15850;47.524;7.814;2022-09-09T02:06:33;97175.84;;;11.91;100.00
28665;BME280;15850;47.524;7.814;2022-09-09T02:09:11;97279.78;;;12.44;100.00
28665;BME280;15850;47.524;7.814;2022-09-09T02:11:44;97346.34;;;12.98;100.00
28665;BME280;15850;47.524;7.814;2022-09-09T02:14:33;97334.31;;;12.79;100.00
28665;BME280;15850;47.524;7.814;2022-09-09T02:17:19;97281.16;;;12.34;100.00
28665;BME280;15850;47.524;7.814;2022-09-09T02:20:03;96943.28;;;10.31;100.00
28665;BME280;15850;47.524;7.814;2022-09-09T02:22:41;97286.47;;;12.66;100.00
28665;BME280;15850;47.524;7.814;2022-09-09T02:25:10;97549.97;;;14.12;100.00
28665;BME280;15850;47.524;7.814;2022-09-09T02:27:38;97379.56;;;13.00;100.00
28665;BME280;15850;47.524;7.814;2022-09-09T02:30:08;97534.22;;;14.05;100.00
28665;BME280;15850;47.524;7.814;2022-09-09T02:32:42;97480.00;;;13.88;100.00
28665;BME280;15850;47.524;7.814;2022-09-09T02:35:14;97524.31;;;14.20;100.00
28665;BME280;15850;47.524;7.814;2022-09-09T02:37:44;97522.81;;;14.22;100.00
28665;BME280;15850;47.524;7.814;2022-09-09T02:40:19;97180.97;;;11.92;100.00
28665;BME280;15850;47.524;7.814;2022-09-09T02:42:55;97160.28;;;11.91;100.00
28665;BME280;15850;47.524;7.814;2022-09-09T02:45:25;97364.72;;;13.39;100.00
28665;BME280;15850;47.524;7.814;2022-09-09T02:47:58;97154.84;;;12.11;100.00
28665;BME280;15850;47.524;7.814;2022-09-09T02:50:33;97542.50;;;14.31;100.00
28665;BME280;15850;47.524;7.814;2022-09-09T02:53:09;97159.94;;;12.12;100.00
28665;BME280;15850;47.524;7.814;2022-09-09T02:55:47;97449.78;;;14.03;100.00
28665;BME280;15850;47.524;7.814;2022-09-09T02:58:18;97520.44;;;14.44;100.00
28665;BME280;15850;47.524;7.814;2022-09-09T03:01:12;97521.16;;;14.18;100.00
28665;BME280;15850;47.524;7.814;2022-09-09T03:03:38;97519.63;;;14.20;100.00
28665;BME280;15850;47.524;7.814;2022-09-09T03:06:08;96847.91;;;9.89;100.00
28665;BME280;15850;47.524;7.814;2022-09-09T03:08:37;97160.06;;;12.00;100.00
28665;BME280;15850;47.524;7.814;2022-09-09T03:11:14;97557.03;;;14.36;100.00
28665;BME280;15850;47.524;7.814;2022-09-09T03:13:47;97512.69;;;14.26;100.00
28665;BME280;15850;47.524;7.814;2022-09-09T03:16:21;97514.09;;;14.40;100.00
28665;BME280;15850;47.524;7.814;2022-09-09T03:18:59;97514.75;;;14.33;100.00
28665;BME280;15850;47.524;7.814;2022-09-09T03:21:39;97154.69;;;11.84;100.00
28665;BME280;15850;47.524;7.814;2022-09-09T03:24:14;97171.56;;;11.90;100.00
28665;BME280;15850;47.524;7.814;2022-09-09T03:26:43;97516.81;;;13.94;100.00
28665;BME280;15850;47.524;7.814;2022-09-09T03:29:13;97203.75;;;11.84;100.00
28665;BME280;15850;47.524;7.814;2022-09-09T03:31:42;96927.38;;;10.18;100.00
28665;BME280;15850;47.524;7.814;2022-09-09T03:34:10;97167.13;;;11.66;100.00
28665;BME280;15850;47.524;7.814;2022-09-09T03:36:39;96978.31;;;10.52;100.00
28665;BME280;15850;47.524;7.814;2022-09-09T03:39:05;96933.09;;;10.28;100.00
28665;BME280;15850;47.524;7.814;2022-09-09T03:41:31;97511.13;;;14.25;100.00
28665;BME280;15850;47.524;7.814;2022-09-09T03:43:59;97184.47;;;11.93;100.00
28665;BME280;15850;47.524;7.814;2022-09-09T03:46:28;97159.69;;;11.82;100.00
28665;BME280;15850;47.524;7.814;2022-09-09T03:48:56;96827.09;;;9.61;100.00
28665;BME280;15850;47.524;7.814;2022-09-09T03:51:34;97422.91;;;13.63;100.00
28665;BME280;15850;47.524;7.814;2022-09-09T03:54:03;97376.03;;;13.38;100.00
28665;BME280;15850;47.524;7.814;2022-09-09T03:56:31;97507.97;;;14.23;100.00
28665;BME280;15850;47.524;7.814;2022-09-09T04:02:16;96905.34;;;10.23;100.00
28665;BME280;15850;47.524;7.814;2022-09-09T04:08:12;97310.44;;;12.96;100.00
28665;BME280;15850;47.524;7.814;2022-09-09T04:10:40;97502.69;;;14.34;100.00
28665;BME280;15850;47.524;7.814;2022-09-09T04:13:12;97512.66;;;14.23;100.00
28665;BME280;15850;47.524;7.814;2022-09-09T04:15:57;97151.78;;;11.77;100.00
28665;BME280;15850;47.524;7.814;2022-09-09T04:18:33;97296.66;;;12.88;100.00
28665;BME280;15850;47.524;7.814;2022-09-09T04:21:11;97013.34;;;10.89;100.00
28665;BME280;15850;47.524;7.814;2022-09-09T04:23:48;97314.03;;;12.80;100.00
28665;BME280;15850;47.524;7.814;2022-09-09T04:26:22;97284.16;;;12.68;100.00
28665;BME280;15850;47.524;7.814;2022-09-09T04:28:51;96939.78;;;10.31;100.00
28665;BME280;15850;47.524;7.814;2022-09-09T04:31:22;97346.78;;;12.80;100.00
28665;BME280;15850;47.524;7.814;2022-09-09T04:33:52;97176.94;;;11.70;100.00
28665;BME280;15850;47.524;7.814;2022-09-09T04:36:23;97519.09;;;14.11;100.00
28665;BME280;15850;47.524;7.814;2022-09-09T04:39:06;96935.03;;;10.28;100.00
28665;BME280;15850;47.524;7.814;2022-09-09T04:42:04;96907.75;;;10.40;100.00
28665;BME280;15850;47.524;7.814;2022-09-09T04:44:35;97537.75;;;14.28;100.00
28665;BME280;15850;47.524;7.814;2022-09-09T04:47:25;96940.44;;;10.44;100.00
28665;BME280;15850;47.524;7.814;2022-09-09T04:50:23;96983.53;;;10.77;100.00
28665;BME280;15850;47.524;7.814;2022-09-09T04:52:59;97519.16;;;14.38;100.00
28665;BME280;15850;47.524;7.814;2022-09-09T04:55:26;97335.34;;;13.13;100.00
28665;BME280;15850;47.524;7.814;2022-09-09T04:57:54;97377.66;;;13.43;100.00
28665;BME280;15850;47.524;7.814;2022-09-09T05:00:20;97239.81;;;12.32;100.00
28665;BME280;15850;47.524;7.814;2022-09-09T05:02:49;97005.06;;;11.01;100.00
28665;BME280;15850;47.524;7.814;2022-09-09T05:05:35;97221.63;;;12.40;100.00
28665;BME280;15850;47.524;7.814;2022-09-09T05:08:14;96918.19;;;10.38;100.00
28665;BME280;15850;47.524;7.814;2022-09-09T05:10:47;97465.53;;;14.10;100.00
28665;BME280;15850;47.524;7.814;2022-09-09T05:13:12;97493.66;;;14.33;100.00
28665;BME280;15850;47.524;7.814;2022-09-09T05:15:38;97431.69;;;13.95;100.00
28665;BME280;15850;47.524;7.814;2022-09-09T05:18:04;97522.63;;;14.57;100.00
28665;BME280;15850;47.524;7.814;2022-09-09T05:20:31;97524.09;;;14.51;100.00
28665;BME280;15850;47.524;7.814;2022-09-09T05:22:57;97492.19;;;14.40;100.00
28665;BME280;15850;47.524;7.814;2022-09-09T05:25:26;97527.38;;;14.61;100.00
28665;BME280;15850;47.524;7.814;2022-09-09T05:27:55;97525.84;;;14.63;100.00
28665;BME280;15850;47.524;7.814;2022-09-09T05:30:20;97524.38;;;14.69;100.00
28665;BME280;15850;47.524;7.814;2022-09-09T05:32:46;97527.63;;;14.52;100.00
28665;BME280;15850;47.524;7.814;2022-09-09T05:35:12;97504.56;;;14.53;100.00
28665;BME280;15850;47.524;7.814;2022-09-09T05:37:38;97527.53;;;14.71;100.00
28665;BME280;15850;47.524;7.814;2022-09-09T05:40:04;97470.03;;;14.22;100.00
28665;BME280;15850;47.524;7.814;2022-09-09T05:42:30;97487.94;;;14.42;100.00
28665;BME280;15850;47.524;7.814;2022-09-09T05:44:57;97522.16;;;14.52;100.00
28665;BME280;15850;47.524;7.814;2022-09-09T05:47:23;97524.38;;;14.46;100.00
28665;BME280;15850;47.524;7.814;2022-09-09T05:49:49;97453.75;;;14.06;100.00
28665;BME280;15850;47.524;7.814;2022-09-09T05:52:15;97517.88;;;14.31;100.00
28665;BME280;15850;47.524;7.814;2022-09-09T05:54:40;97531.44;;;14.24;100.00
28665;BME280;15850;47.524;7.814;2022-09-09T05:57:07;97533.00;;;14.02;100.00
28665;BME280;15850;47.524;7.814;2022-09-09T05:59:32;97537.88;;;14.13;100.00
28665;BME280;15850;47.524;7.814;2022-09-09T06:02:00;97551.13;;;14.33;100.00
28665;BME280;15850;47.524;7.814;2022-09-09T06:04:31;97545.06;;;14.44;100.00
28665;BME280;15850;47.524;7.814;2022-09-09T06:06:59;97445.03;;;14.00;100.00
28665;BME280;15850;47.524;7.814;2022-09-09T06:09:24;97456.59;;;14.13;100.00
28665;BME280;15850;47.524;7.814;2022-09-09T06:11:50;97543.44;;;14.89;100.00
28665;BME280;15850;47.524;7.814;2022-09-09T06:14:16;97543.50;;;14.92;100.00
28665;BME280;15850;47.524;7.814;2022-09-09T06:16:44;97517.44;;;14.75;100.00
28665;BME280;15850;47.524;7.814;2022-09-09T06:19:17;97214.75;;;12.88;100.00
28665;BME280;15850;47.524;7.814;2022-09-09T06:21:43;97459.25;;;14.55;100.00
28665;BME280;15850;47.524;7.814;2022-09-09T06:24:10;97547.13;;;14.73;100.00
28665;BME280;15850;47.524;7.814;2022-09-09T06:26:37;97404.34;;;13.72;100.00
28665;BME280;15850;47.524;7.814;2022-09-09T06:29:04;97470.31;;;14.17;100.00
28665;BME280;15850;47.524;7.814;2022-09-09T06:31:32;97553.22;;;14.90;100.00
28665;BME280;15850;47.524;7.814;2022-09-09T06:34:02;97556.59;;;14.79;100.00
28665;BME280;15850;47.524;7.814;2022-09-09T06:36:32;97552.56;;;14.96;100.00
28665;BME280;15850;47.524;7.814;2022-09-09T06:38:59;97545.44;;;14.92;100.00
28665;BME280;15850;47.524;7.814;2022-09-09T06:41:27;97551.75;;;15.22;100.00
28665;BME280;15850;47.524;7.814;2022-09-09T06:43:56;97549.75;;;15.49;100.00
28665;BME280;15850;47.524;7.814;2022-09-09T06:46:30;97561.16;;;15.82;100.00
28665;BME280;15850;47.524;7.814;2022-09-09T06:48:56;97518.31;;;15.70;100.00
28665;BME280;15850;47.524;7.814;2022-09-09T06:51:24;97554.59;;;16.31;100.00
28665;BME280;15850;47.524;7.814;2022-09-09T06:53:53;97555.56;;;16.49;100.00
28665;BME280;15850;47.524;7.814;2022-09-09T06:56:21;97567.00;;;16.58;100.00
28665;BME280;15850;47.524;7.814;2022-09-09T06:58:49;97563.50;;;16.61;100.00
28665;BME280;15850;47.524;7.814;2022-09-09T07:01:23;97567.47;;;16.67;100.00
28665;BME280;15850;47.524;7.814;2022-09-09T07:03:51;97542.19;;;16.48;100.00
28665;BME280;15850;47.524;7.814;2022-09-09T07:06:19;97574.16;;;16.66;100.00
28665;BME280;15850;47.524;7.814;2022-09-09T07:08:50;97575.75;;;16.27;100.00
28665;BME280;15850;47.524;7.814;2022-09-09T07:11:18;97541.13;;;16.15;100.00
28665;BME280;15850;47.524;7.814;2022-09-09T07:13:54;97568.88;;;16.47;100.00
28665;BME280;15850;47.524;7.814;2022-09-09T07:16:21;97571.94;;;16.79;100.00
28665;BME280;15850;47.524;7.814;2022-09-09T07:18:47;97551.91;;;16.79;100.00
28665;BME280;15850;47.524;7.814;2022-09-09T07:21:14;97574.13;;;17.14;100.00
28665;BME280;15850;47.524;7.814;2022-09-09T07:23:40;97534.19;;;16.73;100.00
28665;BME280;15850;47.524;7.814;2022-09-09T07:26:10;97572.75;;;16.83;100.00
28665;BME280;15850;47.524;7.814;2022-09-09T07:28:40;97511.50;;;16.35;100.00
28665;BME280;15850;47.524;7.814;2022-09-09T07:31:07;97575.38;;;16.73;100.00
28665;BME280;15850;47.524;7.814;2022-09-09T07:33:34;97581.16;;;17.08;100.00
28665;BME280;15850;47.524;7.814;2022-09-09T07:36:05;97568.88;;;17.61;100.00
28665;BME280;15850;47.524;7.814;2022-09-09T07:38:31;97578.47;;;17.85;100.00
28665;BME280;15850;47.524;7.814;2022-09-09T07:41:03;97473.66;;;17.28;100.00
28665;BME280;15850;47.524;7.814;2022-09-09T07:43:29;97585.19;;;18.02;100.00
28665;BME280;15850;47.524;7.814;2022-09-09T07:45:59;97539.84;;;17.71;100.00
28665;BME280;15850;47.524;7.814;2022-09-09T07:48:25;97511.50;;;17.56;100.00
28665;BME280;15850;47.524;7.814;2022-09-09T07:51:05;97516.97;;;17.45;100.00
28665;BME280;15850;47.524;7.814;2022-09-09T07:53:31;97564.16;;;17.58;100.00
28665;BME280;15850;47.524;7.814;2022-09-09T07:56:02;97576.31;;;17.53;100.00
28665;BME280;15850;47.524;7.814;2022-09-09T07:58:28;97554.59;;;17.34;100.00
28665;BME280;15850;47.524;7.814;2022-09-09T08:00:53;97589.75;;;17.69;100.00
28665;BME280;15850;47.524;7.814;2022-09-09T08:03:20;97597.22;;;17.65;100.00
28665;BME280;15850;47.524;7.814;2022-09-09T08:05:46;97440.53;;;16.37;100.00
28665;BME280;15850;47.524;7.814;2022-09-09T08:08:11;97587.34;;;17.60;100.00
28665;BME280;15850;47.524;7.814;2022-09-09T08:10:37;97595.00;;;17.96;100.00
28665;BME280;15850;47.524;7.814;2022-09-09T08:13:03;97595.47;;;18.16;100.00
28665;BME280;15850;47.524;7.814;2022-09-09T08:15:28;97555.72;;;18.10;100.00
28665;BME280;15850;47.524;7.814;2022-09-09T08:17:55;97612.00;;;18.30;100.00
28665;BME280;15850;47.524;7.814;2022-09-09T08:20:23;97496.63;;;17.75;100.00
28665;BME280;15850;47.524;7.814;2022-09-09T08:22:49;97602.59;;;18.42;100.00
28665;BME280;15850;47.524;7.814;2022-09-09T08:25:14;97608.53;;;18.54;100.00
28665;BME280;15850;47.524;7.814;2022-09-09T08:27:42;97604.59;;;18.48;100.00
28665;BME280;15850;47.524;7.814;2022-09-09T08:30:08;97538.34;;;17.84;100.00
28665;BME280;15850;47.524;7.814;2022-09-09T08:32:34;97558.44;;;17.95;100.00
28665;BME280;15850;47.524;7.814;2022-09-09T08:35:00;97584.88;;;18.39;100.00
28665;BME280;15850;47.524;7.814;2022-09-09T08:37:27;97604.59;;;18.48;100.00
28665;BME280;15850;47.524;7.814;2022-09-09T08:39:53;97603.84;;;18.98;100.00
28665;BME280;15850;47.524;7.814;2022-09-09T08:42:30;97603.84;;;19.12;100.00
28665;BME280;15850;47.524;7.814;2022-09-09T08:45:11;97603.81;;;19.23;100.00
28665;BME280;15850;47.524;7.814;2022-09-09T08:47:45;97567.16;;;19.33;100.00
28665;BME280;15850;47.524;7.814;2022-09-09T08:50:21;97598.31;;;19.12;100.00
28665;BME280;15850;47.524;7.814;2022-09-09T08:52:54;97605.44;;;18.92;100.00
28665;BME280;15850;47.524;7.814;2022-09-09T08:55:25;97606.56;;;18.44;100.00
28665;BME280;15850;47.524;7.814;2022-09-09T08:57:56;97610.84;;;18.31;100.00
28665;BME280;15850;47.524;7.814;2022-09-09T09:00:30;97596.56;;;17.97;100.00
28665;BME280;15850;47.524;7.814;2022-09-09T09:03:05;97618.59;;;17.93;100.00
28665;BME280;15850;47.524;7.814;2022-09-09T09:05:33;97621.03;;;18.20;100.00
28665;BME280;15850;47.524;7.814;2022-09-09T09:08:10;97510.44;;;17.82;100.00
28665;BME280;15850;47.524;7.814;2022-09-09T09:10:45;97612.44;;;18.50;100.00
28665;BME280;15850;47.524;7.814;2022-09-09T09:13:17;97605.81;;;18.87;100.00
28665;BME280;15850;47.524;7.814;2022-09-09T09:15:48;97597.53;;;18.87;100.00
28665;BME280;15850;47.524;7.814;2022-09-09T09:18:16;97566.84;;;18.81;100.00
28665;BME280;15850;47.524;7.814;2022-09-09T09:20:50;97610.94;;;18.85;100.00
28665;BME280;15850;47.524;7.814;2022-09-09T09:23:24;97605.81;;;18.83;100.00
28665;BME280;15850;47.524;7.814;2022-09-09T09:25:56;97611.31;;;18.87;100.00
28665;BME280;15850;47.524;7.814;2022-09-09T09:28:25;97610.50;;;18.58;100.00
28665;BME280;15850;47.524;7.814;2022-09-09T09:30:56;97612.44;;;18.43;100.00
28665;BME280;15850;47.524;7.814;2022-09-09T09:33:27;97561.59;;;18.04;100.00
28665;BME280;15850;47.524;7.814;2022-09-09T09:35:56;97602.63;;;18.52;100.00
28665;BME280;15850;47.524;7.814;2022-09-09T09:38:24;97592.00;;;18.58;100.00
28665;BME280;15850;47.524;7.814;2022-09-09T09:40:56;97587.31;;;18.91;100.00
28665;BME280;15850;47.524;7.814;2022-09-09T09:43:24;97587.69;;;19.11;100.00
28665;BME280;15850;47.524;7.814;2022-09-09T09:45:51;97598.34;;;19.01;100.00
28665;BME280;15850;47.524;7.814;2022-09-09T09:48:17;97602.25;;;19.22;100.00
28665;BME280;15850;47.524;7.814;2022-09-09T09:50:48;97593.47;;;19.63;100.00
28665;BME280;15850;47.524;7.814;2022-09-09T09:53:25;97594.34;;;19.42;100.00
28665;BME280;15850;47.524;7.814;2022-09-09T09:55:56;97586.41;;;19.62;100.00
28665;BME280;15850;47.524;7.814;2022-09-09T09:58:23;97583.56;;;19.83;100.00
28665;BME280;15850;47.524;7.814;2022-09-09T10:00:52;97578.44;;;19.85;100.00
28665;BME280;15850;47.524;7.814;2022-09-09T10:03:22;97579.31;;;19.61;93.80
28665;BME280;15850;47.524;7.814;2022-09-09T10:05:50;97578.50;;;19.57;100.00
28665;BME280;15850;47.524;7.814;2022-09-09T10:08:16;97587.13;;;19.87;96.87
28665;BME280;15850;47.524;7.814;2022-09-09T10:10:51;97466.84;;;18.88;98.75
28665;BME280;15850;47.524;7.814;2022-09-09T10:13:20;97573.00;;;19.60;99.21
28665;BME280;15850;47.524;7.814;2022-09-09T10:15:59;97577.00;;;19.45;100.00
28665;BME280;15850;47.524;7.814;2022-09-09T10:18:39;97549.47;;;19.09;100.00
28665;BME280;15850;47.524;7.814;2022-09-09T10:21:17;97495.94;;;18.64;97.14
28665;BME280;15850;47.524;7.814;2022-09-09T10:23:56;97495.16;;;18.95;97.74
28665;BME280;15850;47.524;7.814;2022-09-09T10:26:34;97573.75;;;19.75;89.87
28665;BME280;15850;47.524;7.814;2022-09-09T10:29:18;97357.84;;;18.51;85.77
28665;BME280;15850;47.524;7.814;2022-09-09T10:31:55;97341.31;;;18.47;87.71
28665;BME280;15850;47.524;7.814;2022-09-09T10:34:37;97414.41;;;18.98;87.02
28665;BME280;15850;47.524;7.814;2022-09-09T10:37:34;97329.94;;;18.35;85.25
28665;BME280;15850;47.524;7.814;2022-09-09T10:40:02;97553.97;;;19.94;86.78
28665;BME280;15850;47.524;7.814;2022-09-09T10:42:33;97546.03;;;20.04;86.12
28665;BME280;15850;47.524;7.814;2022-09-09T10:45:10;97259.25;;;17.78;84.58
28665;BME280;15850;47.524;7.814;2022-09-09T10:48:08;97541.22;;;20.15;89.20
28665;BME280;15850;47.524;7.814;2022-09-09T10:50:48;97499.41;;;20.16;87.30
28665;BME280;15850;47.524;7.814;2022-09-09T10:53:24;97521.63;;;20.54;83.56
28665;BME280;15850;47.524;7.814;2022-09-09T10:55:56;97532.22;;;20.67;80.14
28665;BME280;15850;47.524;7.814;2022-09-09T10:58:36;97499.94;;;20.46;81.32
28665;BME280;15850;47.524;7.814;2022-09-09T11:01:09;97487.00;;;20.35;77.50
28665;BME280;15850;47.524;7.814;2022-09-09T11:03:38;97524.72;;;20.63;77.99
28665;BME280;15850;47.524;7.814;2022-09-09T11:06:07;97523.59;;;20.99;78.93
28665;BME280;15850;47.524;7.814;2022-09-09T11:08:38;97521.81;;;21.23;75.37
28665;BME280;15850;47.524;7.814;2022-09-09T11:11:09;97515.38;;;21.33;71.91
28665;BME280;15850;47.524;7.814;2022-09-09T11:13:40;97461.88;;;20.71;73.87
28665;BME280;15850;47.524;7.814;2022-09-09T11:16:17;97521.06;;;20.77;78.68
28665;BME280;15850;47.524;7.814;2022-09-09T11:18:46;97520.91;;;20.92;81.75
28665;BME280;15850;47.524;7.814;2022-09-09T11:23:56;97514.09;;;21.03;76.39
28665;BME280;15850;47.524;7.814;2022-09-09T11:26:30;97518.59;;;20.86;77.52
28665;BME280;15850;47.524;7.814;2022-09-09T11:29:09;97512.56;;;20.54;74.78
28665;BME280;15850;47.524;7.814;2022-09-09T11:31:44;97516.72;;;20.76;77.12
28665;BME280;15850;47.524;7.814;2022-09-09T11:34:26;97427.03;;;19.84;78.57
28665;BME280;15850;47.524;7.814;2022-09-09T11:37:09;97520.50;;;20.45;81.26
28665;BME280;15850;47.524;7.814;2022-09-09T11:40:00;97515.66;;;20.63;80.09
28665;BME280;15850;47.524;7.814;2022-09-09T11:42:32;97492.47;;;20.42;75.07
28665;BME280;15850;47.524;7.814;2022-09-09T11:45:08;97523.66;;;20.47;78.73
28665;BME280;15850;47.524;7.814;2022-09-09T11:47:34;97513.16;;;20.24;77.16
28665;BME280;15850;47.524;7.814;2022-09-09T11:50:27;97524.50;;;20.40;77.23
28665;BME280;15850;47.524;7.814;2022-09-09T11:53:05;97486.44;;;20.10;79.64
28665;BME280;15850;47.524;7.814;2022-09-09T11:55:32;97528.44;;;20.35;79.92
28665;BME280;15850;47.524;7.814;2022-09-09T11:57:58;97528.47;;;20.87;80.61
28665;BME280;15850;47.524;7.814;2022-09-09T12:00:33;97289.19;;;19.59;81.92
28665;BME280;15850;47.524;7.814;2022-09-09T12:03:01;97526.19;;;21.54;77.08
28665;BME280;15850;47.524;7.814;2022-09-09T12:05:36;97486.06;;;21.39;77.50
28665;BME280;15850;47.524;7.814;2022-09-09T12:08:06;97362.31;;;20.75;77.38
28665;BME280;15850;47.524;7.814;2022-09-09T12:10:39;96981.47;;;18.23;76.05
28665;BME280;15850;47.524;7.814;2022-09-09T12:13:26;97488.47;;;21.33;78.14
28665;BME280;15850;47.524;7.814;2022-09-09T12:15:56;97162.84;;;18.87;76.97
28665;BME280;15850;47.524;7.814;2022-09-09T12:18:24;97275.91;;;19.43;77.57
28665;BME280;15850;47.524;7.814;2022-09-09T12:20:56;97498.19;;;20.73;77.08
28665;BME280;15850;47.524;7.814;2022-09-09T12:23:32;97418.69;;;20.39;77.69
28665;BME280;15850;47.524;7.814;2022-09-09T12:26:08;97137.34;;;18.76;75.88
28665;BME280;15850;47.524;7.814;2022-09-09T12:28:52;97335.03;;;19.98;75.09
28665;BME280;15850;47.524;7.814;2022-09-09T12:31:24;97314.19;;;19.89;72.78
28665;BME280;15850;47.524;7.814;2022-09-09T12:33:51;97505.50;;;21.28;76.38
28665;BME280;15850;47.524;7.814;2022-09-09T12:36:19;97264.25;;;19.73;73.83
28665;BME280;15850;47.524;7.814;2022-09-09T12:38:46;97349.69;;;20.32;74.03
28665;BME280;15850;47.524;7.814;2022-09-09T12:41:22;97490.41;;;20.61;75.40
28665;BME280;15850;47.524;7.814;2022-09-09T12:43:48;97286.16;;;19.42;74.46
28665;BME280;15850;47.524;7.814;2022-09-09T12:46:22;97499.97;;;21.28;72.61
28665;BME280;15850;47.524;7.814;2022-09-09T12:48:49;97507.81;;;21.37;69.08
28665;BME280;15850;47.524;7.814;2022-09-09T12:51:19;97442.22;;;21.00;73.25
28665;BME280;15850;47.524;7.814;2022-09-09T12:53:46;97520.03;;;21.43;73.16
28665;BME280;15850;47.524;7.814;2022-09-09T12:56:19;97516.00;;;21.10;71.97
28665;BME280;15850;47.524;7.814;2022-09-09T12:58:46;97414.66;;;20.93;72.48
28665;BME280;15850;47.524;7.814;2022-09-09T13:01:22;97390.84;;;20.99;73.13
28665;BME280;15850;47.524;7.814;2022-09-09T13:03:51;97520.31;;;21.49;72.86
28665;BME280;15850;47.524;7.814;2022-09-09T13:06:20;97514.97;;;21.34;75.36
28665;BME280;15850;47.524;7.814;2022-09-09T13:09:01;97518.38;;;21.08;75.83
28665;BME280;15850;47.524;7.814;2022-09-09T13:18:51;97310.31;;;19.28;77.99
28665;BME280;15850;47.524;7.814;2022-09-09T13:21:51;96953.84;;;16.33;83.01
28665;BME280;15850;47.524;7.814;2022-09-09T13:28:04;97540.69;;;20.34;100.00
28665;BME280;15850;47.524;7.814;2022-09-09T13:30:37;97307.16;;;18.23;90.16
28665;BME280;15850;47.524;7.814;2022-09-09T13:33:21;97530.19;;;20.11;84.62
28665;BME280;15850;47.524;7.814;2022-09-09T13:35:54;97349.59;;;19.42;84.86
28665;BME280;15850;47.524;7.814;2022-09-09T13:38:21;97518.25;;;20.81;80.78